sensor_id;sensor_type;location;lat;lon;timestamp;P1;durP1;ratioP1;P2;durP2;ratioP2
17662;SDS011;8950;56.892;15.090;2022-12-15T00:02:42;4.70;;;2.90;;
17662;SDS011;8950;56.892;15.090;2022-12-15T00:05:26;3.00;;;2.72;;
17662;SDS011;8950;56.892;15.090;2022-12-15T00:08:10;3.10;;;2.40;;
17662;SDS011;8950;56.892;15.090;2022-12-15T00:10:54;3.47;;;2.53;;
17662;SDS011;8950;56.892;15.090;2022-12-15T00:13:37;2.60;;;2.40;;
17662;SDS011;8950;56.892;15.090;2022-12-15T00:16:23;2.83;;;2.30;;
17662;SDS011;8950;56.892;15.090;2022-12-15T00:19:07;3.78;;;2.13;;
17662;SDS011;8950;56.892;15.090;2022-12-15T00:21:51;2.90;;;2.35;;
17662;SDS011;8950;56.892;15.090;2022-12-15T00:24:35;5.93;;;2.47;;
17662;SDS011;8950;56.892;15.090;2022-12-15T00:27:19;5.32;;;2.63;;
17662;SDS011;8950;56.892;15.090;2022-12-15T00:30:03;2.67;;;1.98;;
17662;SDS011;8950;56.892;15.090;2022-12-15T00:32:49;3.53;;;2.50;;
17662;SDS011;8950;56.892;15.090;2022-12-15T00:35:33;3.15;;;2.08;;
17662;SDS011;8950;56.892;15.090;2022-12-15T00:38:17;5.55;;;2.60;;
17662;SDS011;8950;56.892;15.090;2022-12-15T00:41:01;4.15;;;2.25;;
17662;SDS011;8950;56.892;15.090;2022-12-15T00:43:28;4.78;;;2.42;;
17662;SDS011;8950;56.892;15.090;2022-12-15T00:45:55;3.20;;;2.50;;
17662;SDS011;8950;56.892;15.090;2022-12-15T00:48:40;2.55;;;2.22;;
17662;SDS011;8950;56.892;15.090;2022-12-15T00:51:07;4.35;;;2.40;;
17662;SDS011;8950;56.892;15.090;2022-12-15T00:53:32;3.85;;;2.35;;
17662;SDS011;8950;56.892;15.090;2022-12-15T00:56:16;5.05;;;2.50;;
17662;SDS011;8950;56.892;15.090;2022-12-15T00:59:00;5.97;;;2.30;;
17662;SDS011;8950;56.892;15.090;2022-12-15T01:01:44;3.95;;;2.15;;
17662;SDS011;8950;56.892;15.090;2022-12-15T01:04:29;5.20;;;2.30;;
17662;SDS011;8950;56.892;15.090;2022-12-15T01:07:13;6.03;;;2.65;;
17662;SDS011;8950;56.892;15.090;2022-12-15T01:09:57;2.92;;;2.22;;
17662;SDS011;8950;56.892;15.090;2022-12-15T01:12:41;6.25;;;2.55;;
17662;SDS011;8950;56.892;15.090;2022-12-15T01:15:25;3.63;;;2.70;;
17662;SDS011;8950;56.892;15.090;2022-12-15T01:18:09;2.85;;;2.20;;
17662;SDS011;8950;56.892;15.090;2022-12-15T01:20:55;4.95;;;2.30;;
17662;SDS011;8950;56.892;15.090;2022-12-15T01:23:22;3.70;;;2.08;;
17662;SDS011;8950;56.892;15.090;2022-12-15T01:25:49;4.63;;;2.42;;
17662;SDS011;8950;56.892;15.090;2022-12-15T01:28:15;3.88;;;2.47;;
17662;SDS011;8950;56.892;15.090;2022-12-15T01:30:42;2.40;;;2.20;;
17662;SDS011;8950;56.892;15.090;2022-12-15T01:33:08;3.15;;;2.20;;
17662;SDS011;8950;56.892;15.090;2022-12-15T01:35:34;3.25;;;2.45;;
17662;SDS011;8950;56.892;15.090;2022-12-15T01:38:02;3.78;;;2.25;;
17662;SDS011;8950;56.892;15.090;2022-12-15T01:40:29;3.95;;;2.47;;
17662;SDS011;8950;56.892;15.090;2022-12-15T01:43:10;2.78;;;2.28;;
17662;SDS011;8950;56.892;15.090;2022-12-15T01:45:48;4.10;;;2.55;;
17662;SDS011;8950;56.892;15.090;2022-12-15T01:48:17;3.08;;;2.30;;
17662;SDS011;8950;56.892;15.090;2022-12-15T01:50:44;3.00;;;2.33;;
17662;SDS011;8950;56.892;15.090;2022-12-15T01:53:13;4.85;;;2.60;;
17662;SDS011;8950;56.892;15.090;2022-12-15T01:55:40;4.38;;;2.40;;
17662;SDS011;8950;56.892;15.090;2022-12-15T01:58:09;3.17;;;2.40;;
17662;SDS011;8950;56.892;15.090;2022-12-15T02:00:37;3.90;;;2.30;;
17662;SDS011;8950;56.892;15.090;2022-12-15T02:03:04;3.05;;;2.17;;
17662;SDS011;8950;56.892;15.090;2022-12-15T02:05:31;3.72;;;2.55;;
17662;SDS011;8950;56.892;15.090;2022-12-15T02:07:59;3.20;;;2.22;;
17662;SDS011;8950;56.892;15.090;2022-12-15T02:10:28;3.15;;;2.50;;
17662;SDS011;8950;56.892;15.090;2022-12-15T02:12:57;2.70;;;2.50;;
17662;SDS011;8950;56.892;15.090;2022-12-15T02:15:29;3.03;;;2.20;;
17662;SDS011;8950;56.892;15.090;2022-12-15T02:17:59;3.85;;;2.30;;
17662;SDS011;8950;56.892;15.090;2022-12-15T02:20:32;5.50;;;2.47;;
17662;SDS011;8950;56.892;15.090;2022-12-15T02:25:52;3.13;;;2.40;;
17662;SDS011;8950;56.892;15.090;2022-12-15T02:28:21;2.72;;;2.25;;
17662;SDS011;8950;56.892;15.090;2022-12-15T02:30:53;2.53;;;2.20;;
17662;SDS011;8950;56.892;15.090;2022-12-15T02:33:39;3.78;;;2.25;;
17662;SDS011;8950;56.892;15.090;2022-12-15T02:36:10;3.35;;;2.20;;
17662;SDS011;8950;56.892;15.090;2022-12-15T02:38:39;3.28;;;2.58;;
17662;SDS011;8950;56.892;15.090;2022-12-15T02:43:47;3.13;;;2.42;;
17662;SDS011;8950;56.892;15.090;2022-12-15T02:46:17;3.65;;;2.55;;
17662;SDS011;8950;56.892;15.090;2022-12-15T02:48:48;3.58;;;2.60;;
17662;SDS011;8950;56.892;15.090;2022-12-15T02:51:23;3.67;;;2.35;;
17662;SDS011;8950;56.892;15.090;2022-12-15T02:54:00;4.85;;;2.67;;
17662;SDS011;8950;56.892;15.090;2022-12-15T02:56:31;3.97;;;2.30;;
17662;SDS011;8950;56.892;15.090;2022-12-15T02:59:01;3.53;;;2.40;;
17662;SDS011;8950;56.892;15.090;2022-12-15T03:01:32;4.22;;;3.13;;
17662;SDS011;8950;56.892;15.090;2022-12-15T03:04:00;3.10;;;2.90;;
17662;SDS011;8950;56.892;15.090;2022-12-15T03:06:27;3.83;;;2.97;;
17662;SDS011;8950;56.892;15.090;2022-12-15T03:08:54;4.03;;;3.42;;
17662;SDS011;8950;56.892;15.090;2022-12-15T03:11:20;5.72;;;3.22;;
17662;SDS011;8950;56.892;15.090;2022-12-15T03:13:47;4.97;;;3.20;;
17662;SDS011;8950;56.892;15.090;2022-12-15T03:16:13;4.13;;;3.55;;
17662;SDS011;8950;56.892;15.090;2022-12-15T03:18:41;3.95;;;3.58;;
17662;SDS011;8950;56.892;15.090;2022-12-15T03:21:07;5.18;;;3.90;;
17662;SDS011;8950;56.892;15.090;2022-12-15T03:23:34;4.85;;;3.78;;
17662;SDS011;8950;56.892;15.090;2022-12-15T03:26:02;4.90;;;3.60;;
17662;SDS011;8950;56.892;15.090;2022-12-15T03:28:29;4.05;;;3.20;;
17662;SDS011;8950;56.892;15.090;2022-12-15T03:30:55;4.47;;;3.00;;
17662;SDS011;8950;56.892;15.090;2022-12-15T03:33:21;3.95;;;3.20;;
17662;SDS011;8950;56.892;15.090;2022-12-15T03:35:49;4.18;;;3.00;;
17662;SDS011;8950;56.892;15.090;2022-12-15T03:38:16;4.13;;;3.10;;
17662;SDS011;8950;56.892;15.090;2022-12-15T03:40:42;4.57;;;3.30;;
17662;SDS011;8950;56.892;15.090;2022-12-15T03:43:09;4.13;;;2.97;;
17662;SDS011;8950;56.892;15.090;2022-12-15T03:45:35;3.63;;;2.90;;
17662;SDS011;8950;56.892;15.090;2022-12-15T03:48:01;3.53;;;2.97;;
17662;SDS011;8950;56.892;15.090;2022-12-15T03:50:28;3.20;;;2.97;;
17662;SDS011;8950;56.892;15.090;2022-12-15T03:52:56;6.82;;;5.97;;
17662;SDS011;8950;56.892;15.090;2022-12-15T03:55:23;7.22;;;5.93;;
17662;SDS011;8950;56.892;15.090;2022-12-15T03:57:49;5.75;;;5.00;;
17662;SDS011;8950;56.892;15.090;2022-12-15T04:00:16;6.97;;;5.38;;
17662;SDS011;8950;56.892;15.090;2022-12-15T04:02:43;6.55;;;5.93;;
17662;SDS011;8950;56.892;15.090;2022-12-15T04:05:11;7.45;;;6.72;;
17662;SDS011;8950;56.892;15.090;2022-12-15T04:07:40;7.50;;;6.80;;
17662;SDS011;8950;56.892;15.090;2022-12-15T04:10:08;7.00;;;6.40;;
17662;SDS011;8950;56.892;15.090;2022-12-15T04:12:34;7.35;;;6.70;;
17662;SDS011;8950;56.892;15.090;2022-12-15T04:15:04;7.93;;;7.13;;
17662;SDS011;8950;56.892;15.090;2022-12-15T04:17:30;7.32;;;6.55;;
17662;SDS011;8950;56.892;15.090;2022-12-15T04:19:57;7.90;;;7.20;;
17662;SDS011;8950;56.892;15.090;2022-12-15T04:22:36;9.00;;;7.05;;
17662;SDS011;8950;56.892;15.090;2022-12-15T04:25:03;7.75;;;7.10;;
17662;SDS011;8950;56.892;15.090;2022-12-15T04:27:48;7.45;;;6.75;;
17662;SDS011;8950;56.892;15.090;2022-12-15T04:30:32;7.72;;;6.93;;
17662;SDS011;8950;56.892;15.090;2022-12-15T04:33:16;7.82;;;7.03;;
17662;SDS011;8950;56.892;15.090;2022-12-15T04:36:00;8.10;;;7.40;;
17662;SDS011;8950;56.892;15.090;2022-12-15T04:38:44;7.75;;;6.95;;
17662;SDS011;8950;56.892;15.090;2022-12-15T04:41:28;7.50;;;6.80;;
17662;SDS011;8950;56.892;15.090;2022-12-15T04:44:16;7.55;;;6.85;;
17662;SDS011;8950;56.892;15.090;2022-12-15T04:46:59;7.30;;;6.70;;
17662;SDS011;8950;56.892;15.090;2022-12-15T04:49:43;7.53;;;6.85;;
17662;SDS011;8950;56.892;15.090;2022-12-15T04:52:27;7.93;;;7.13;;
17662;SDS011;8950;56.892;15.090;2022-12-15T04:55:11;7.60;;;6.63;;
17662;SDS011;8950;56.892;15.090;2022-12-15T04:57:55;8.13;;;7.03;;
17662;SDS011;8950;56.892;15.090;2022-12-15T05:00:40;7.30;;;6.60;;
17662;SDS011;8950;56.892;15.090;2022-12-15T05:03:24;7.28;;;6.63;;
17662;SDS011;8950;56.892;15.090;2022-12-15T05:06:08;6.90;;;6.30;;
17662;SDS011;8950;56.892;15.090;2022-12-15T05:08:52;6.93;;;6.25;;
17662;SDS011;8950;56.892;15.090;2022-12-15T05:11:36;6.75;;;5.97;;
17662;SDS011;8950;56.892;15.090;2022-12-15T05:14:19;7.10;;;6.50;;
17662;SDS011;8950;56.892;15.090;2022-12-15T05:17:05;7.60;;;6.47;;
17662;SDS011;8950;56.892;15.090;2022-12-15T05:19:48;6.47;;;5.97;;
17662;SDS011;8950;56.892;15.090;2022-12-15T05:22:32;7.15;;;6.55;;
17662;SDS011;8950;56.892;15.090;2022-12-15T05:25:16;6.35;;;5.85;;
17662;SDS011;8950;56.892;15.090;2022-12-15T05:28:00;6.78;;;6.18;;
17662;SDS011;8950;56.892;15.090;2022-12-15T05:30:44;6.25;;;5.65;;
17662;SDS011;8950;56.892;15.090;2022-12-15T05:33:29;6.82;;;6.22;;
17662;SDS011;8950;56.892;15.090;2022-12-15T05:35:56;6.80;;;6.20;;
17662;SDS011;8950;56.892;15.090;2022-12-15T05:38:23;7.00;;;6.30;;
17662;SDS011;8950;56.892;15.090;2022-12-15T05:40:49;7.10;;;6.50;;
17662;SDS011;8950;56.892;15.090;2022-12-15T05:43:15;7.78;;;7.07;;
17662;SDS011;8950;56.892;15.090;2022-12-15T05:45:42;7.20;;;6.55;;
17662;SDS011;8950;56.892;15.090;2022-12-15T05:48:08;7.70;;;6.95;;
17662;SDS011;8950;56.892;15.090;2022-12-15T05:50:36;8.02;;;7.22;;
17662;SDS011;8950;56.892;15.090;2022-12-15T05:53:03;7.63;;;6.90;;
17662;SDS011;8950;56.892;15.090;2022-12-15T05:55:29;7.65;;;6.85;;
17662;SDS011;8950;56.892;15.090;2022-12-15T05:57:55;7.28;;;6.57;;
17662;SDS011;8950;56.892;15.090;2022-12-15T06:00:22;7.43;;;6.72;;
17662;SDS011;8950;56.892;15.090;2022-12-15T06:02:48;7.03;;;6.38;;
17662;SDS011;8950;56.892;15.090;2022-12-15T06:05:15;6.93;;;6.25;;
17662;SDS011;8950;56.892;15.090;2022-12-15T06:07:43;7.10;;;6.40;;
17662;SDS011;8950;56.892;15.090;2022-12-15T06:10:09;6.82;;;6.22;;
17662;SDS011;8950;56.892;15.090;2022-12-15T06:12:35;7.22;;;6.53;;
17662;SDS011;8950;56.892;15.090;2022-12-15T06:15:02;6.85;;;6.25;;
17662;SDS011;8950;56.892;15.090;2022-12-15T06:17:28;7.05;;;6.45;;
17662;SDS011;8950;56.892;15.090;2022-12-15T06:19:55;7.18;;;6.57;;
17662;SDS011;8950;56.892;15.090;2022-12-15T06:22:22;6.93;;;6.32;;
17662;SDS011;8950;56.892;15.090;2022-12-15T06:24:49;6.75;;;6.15;;
17662;SDS011;8950;56.892;15.090;2022-12-15T06:27:16;7.18;;;6.53;;
17662;SDS011;8950;56.892;15.090;2022-12-15T06:29:42;6.82;;;6.22;;
17662;SDS011;8950;56.892;15.090;2022-12-15T06:32:09;7.47;;;6.88;;
17662;SDS011;8950;56.892;15.090;2022-12-15T06:34:35;7.03;;;6.43;;
17662;SDS011;8950;56.892;15.090;2022-12-15T06:37:02;7.63;;;6.93;;
17662;SDS011;8950;56.892;15.090;2022-12-15T06:39:28;7.13;;;6.53;;
17662;SDS011;8950;56.892;15.090;2022-12-15T06:41:56;7.25;;;6.63;;
17662;SDS011;8950;56.892;15.090;2022-12-15T06:44:22;7.65;;;6.95;;
17662;SDS011;8950;56.892;15.090;2022-12-15T06:46:49;7.38;;;6.72;;
17662;SDS011;8950;56.892;15.090;2022-12-15T06:49:15;7.40;;;6.70;;
17662;SDS011;8950;56.892;15.090;2022-12-15T06:51:42;7.40;;;6.80;;
17662;SDS011;8950;56.892;15.090;2022-12-15T06:54:09;7.50;;;6.80;;
17662;SDS011;8950;56.892;15.090;2022-12-15T06:56:36;7.80;;;6.97;;
17662;SDS011;8950;56.892;15.090;2022-12-15T06:59:05;7.85;;;7.15;;
17662;SDS011;8950;56.892;15.090;2022-12-15T07:01:31;7.95;;;7.25;;
17662;SDS011;8950;56.892;15.090;2022-12-15T07:03:58;8.23;;;7.43;;
17662;SDS011;8950;56.892;15.090;2022-12-15T07:06:25;8.40;;;7.60;;
17662;SDS011;8950;56.892;15.090;2022-12-15T07:08:52;8.20;;;7.43;;
17662;SDS011;8950;56.892;15.090;2022-12-15T07:11:20;7.80;;;7.03;;
17662;SDS011;8950;56.892;15.090;2022-12-15T07:13:47;7.85;;;7.18;;
17662;SDS011;8950;56.892;15.090;2022-12-15T07:16:15;7.97;;;7.28;;
17662;SDS011;8950;56.892;15.090;2022-12-15T07:18:41;8.23;;;7.43;;
17662;SDS011;8950;56.892;15.090;2022-12-15T07:21:08;6.57;;;6.03;;
17662;SDS011;8950;56.892;15.090;2022-12-15T07:23:35;7.40;;;6.05;;
17662;SDS011;8950;56.892;15.090;2022-12-15T07:26:02;5.78;;;5.28;;
17662;SDS011;8950;56.892;15.090;2022-12-15T07:28:28;6.05;;;5.55;;
17662;SDS011;8950;56.892;15.090;2022-12-15T07:30:59;6.18;;;5.57;;
17662;SDS011;8950;56.892;15.090;2022-12-15T07:33:27;5.97;;;5.47;;
17662;SDS011;8950;56.892;15.090;2022-12-15T07:35:54;5.60;;;5.10;;
17662;SDS011;8950;56.892;15.090;2022-12-15T07:38:20;5.50;;;5.00;;
17662;SDS011;8950;56.892;15.090;2022-12-15T07:40:47;5.65;;;5.15;;
17662;SDS011;8950;56.892;15.090;2022-12-15T07:43:14;6.00;;;5.45;;
17662;SDS011;8950;56.892;15.090;2022-12-15T07:45:40;5.95;;;5.43;;
17662;SDS011;8950;56.892;15.090;2022-12-15T07:48:07;6.57;;;5.97;;
17662;SDS011;8950;56.892;15.090;2022-12-15T07:50:36;5.68;;;5.18;;
17662;SDS011;8950;56.892;15.090;2022-12-15T07:53:03;6.07;;;5.50;;
17662;SDS011;8950;56.892;15.090;2022-12-15T07:55:30;5.35;;;4.85;;
17662;SDS011;8950;56.892;15.090;2022-12-15T07:57:56;6.15;;;5.53;;
17662;SDS011;8950;56.892;15.090;2022-12-15T08:00:23;4.90;;;4.40;;
17662;SDS011;8950;56.892;15.090;2022-12-15T08:02:49;5.50;;;5.07;;
17662;SDS011;8950;56.892;15.090;2022-12-15T08:05:15;5.32;;;4.82;;
17662;SDS011;8950;56.892;15.090;2022-12-15T08:07:43;6.03;;;5.53;;
17662;SDS011;8950;56.892;15.090;2022-12-15T08:10:10;5.43;;;4.93;;
17662;SDS011;8950;56.892;15.090;2022-12-15T08:12:37;4.95;;;4.45;;
17662;SDS011;8950;56.892;15.090;2022-12-15T08:15:03;5.38;;;4.88;;
17662;SDS011;8950;56.892;15.090;2022-12-15T08:17:30;5.32;;;4.82;;
17662;SDS011;8950;56.892;15.090;2022-12-15T08:19:57;5.55;;;5.05;;
17662;SDS011;8950;56.892;15.090;2022-12-15T08:22:23;5.40;;;4.90;;
17662;SDS011;8950;56.892;15.090;2022-12-15T08:24:51;6.10;;;4.43;;
17662;SDS011;8950;56.892;15.090;2022-12-15T08:27:17;4.80;;;4.40;;
17662;SDS011;8950;56.892;15.090;2022-12-15T08:29:45;4.72;;;4.32;;
17662;SDS011;8950;56.892;15.090;2022-12-15T08:32:12;5.72;;;5.22;;
17662;SDS011;8950;56.892;15.090;2022-12-15T08:34:38;5.40;;;4.90;;
17662;SDS011;8950;56.892;15.090;2022-12-15T08:37:06;4.82;;;4.43;;
17662;SDS011;8950;56.892;15.090;2022-12-15T08:39:32;5.28;;;4.78;;
17662;SDS011;8950;56.892;15.090;2022-12-15T08:42:00;5.53;;;5.03;;
17662;SDS011;8950;56.892;15.090;2022-12-15T08:44:27;5.40;;;5.00;;
17662;SDS011;8950;56.892;15.090;2022-12-15T08:46:53;5.53;;;5.03;;
17662;SDS011;8950;56.892;15.090;2022-12-15T08:49:20;5.82;;;5.22;;
17662;SDS011;8950;56.892;15.090;2022-12-15T08:51:46;6.20;;;5.57;;
17662;SDS011;8950;56.892;15.090;2022-12-15T08:54:12;6.68;;;6.03;;
17662;SDS011;8950;56.892;15.090;2022-12-15T08:56:39;6.40;;;5.80;;
17662;SDS011;8950;56.892;15.090;2022-12-15T08:59:07;6.95;;;6.25;;
17662;SDS011;8950;56.892;15.090;2022-12-15T09:01:34;6.68;;;6.07;;
17662;SDS011;8950;56.892;15.090;2022-12-15T09:04:03;6.65;;;6.05;;
17662;SDS011;8950;56.892;15.090;2022-12-15T09:06:30;6.28;;;5.75;;
17662;SDS011;8950;56.892;15.090;2022-12-15T09:08:57;6.13;;;5.55;;
17662;SDS011;8950;56.892;15.090;2022-12-15T09:11:24;6.32;;;5.72;;
17662;SDS011;8950;56.892;15.090;2022-12-15T09:13:51;6.53;;;6.00;;
17662;SDS011;8950;56.892;15.090;2022-12-15T09:16:19;6.88;;;6.28;;
17662;SDS011;8950;56.892;15.090;2022-12-15T09:18:46;6.10;;;5.60;;
17662;SDS011;8950;56.892;15.090;2022-12-15T09:21:13;6.53;;;5.93;;
17662;SDS011;8950;56.892;15.090;2022-12-15T09:23:40;6.32;;;5.82;;
17662;SDS011;8950;56.892;15.090;2022-12-15T09:26:07;6.38;;;5.78;;
17662;SDS011;8950;56.892;15.090;2022-12-15T09:28:34;6.60;;;6.00;;
17662;SDS011;8950;56.892;15.090;2022-12-15T09:31:01;6.50;;;5.88;;
17662;SDS011;8950;56.892;15.090;2022-12-15T09:33:29;6.70;;;6.10;;
17662;SDS011;8950;56.892;15.090;2022-12-15T09:35:55;7.72;;;6.07;;
17662;SDS011;8950;56.892;15.090;2022-12-15T09:38:22;6.63;;;6.03;;
17662;SDS011;8950;56.892;15.090;2022-12-15T09:40:48;7.28;;;6.60;;
17662;SDS011;8950;56.892;15.090;2022-12-15T09:43:15;6.97;;;6.28;;
17662;SDS011;8950;56.892;15.090;2022-12-15T09:45:43;6.18;;;5.68;;
17662;SDS011;8950;56.892;15.090;2022-12-15T09:48:11;6.32;;;5.72;;
17662;SDS011;8950;56.892;15.090;2022-12-15T09:50:40;5.88;;;5.40;;
17662;SDS011;8950;56.892;15.090;2022-12-15T09:53:09;6.00;;;5.47;;
17662;SDS011;8950;56.892;15.090;2022-12-15T09:55:37;5.90;;;5.35;;
17662;SDS011;8950;56.892;15.090;2022-12-15T09:58:05;5.63;;;5.03;;
17662;SDS011;8950;56.892;15.090;2022-12-15T10:00:38;6.18;;;5.68;;
17662;SDS011;8950;56.892;15.090;2022-12-15T10:03:13;6.00;;;5.40;;
17662;SDS011;8950;56.892;15.090;2022-12-15T10:05:47;6.35;;;5.75;;
17662;SDS011;8950;56.892;15.090;2022-12-15T10:08:16;6.05;;;5.55;;
17662;SDS011;8950;56.892;15.090;2022-12-15T10:10:45;5.90;;;5.38;;
17662;SDS011;8950;56.892;15.090;2022-12-15T10:13:16;5.70;;;5.20;;
17662;SDS011;8950;56.892;15.090;2022-12-15T10:15:44;5.80;;;5.28;;
17662;SDS011;8950;56.892;15.090;2022-12-15T10:18:14;5.32;;;4.93;;
17662;SDS011;8950;56.892;15.090;2022-12-15T10:20:43;5.70;;;5.20;;
17662;SDS011;8950;56.892;15.090;2022-12-15T10:23:12;5.40;;;4.90;;
17662;SDS011;8950;56.892;15.090;2022-12-15T10:25:39;4.68;;;4.38;;
17662;SDS011;8950;56.892;15.090;2022-12-15T10:28:15;5.85;;;5.28;;
17662;SDS011;8950;56.892;15.090;2022-12-15T10:30:48;5.18;;;4.70;;
17662;SDS011;8950;56.892;15.090;2022-12-15T10:33:16;5.68;;;4.72;;
17662;SDS011;8950;56.892;15.090;2022-12-15T10:35:44;5.40;;;4.90;;
17662;SDS011;8950;56.892;15.090;2022-12-15T10:38:23;5.05;;;4.55;;
17662;SDS011;8950;56.892;15.090;2022-12-15T10:40:50;4.55;;;4.15;;
17662;SDS011;8950;56.892;15.090;2022-12-15T10:43:25;5.00;;;4.60;;
17662;SDS011;8950;56.892;15.090;2022-12-15T10:45:59;5.07;;;4.68;;
17662;SDS011;8950;56.892;15.090;2022-12-15T10:48:25;4.30;;;3.97;;
17662;SDS011;8950;56.892;15.090;2022-12-15T10:50:53;4.00;;;3.70;;
17662;SDS011;8950;56.892;15.090;2022-12-15T10:53:37;4.13;;;3.63;;
17662;SDS011;8950;56.892;15.090;2022-12-15T10:56:04;3.78;;;3.47;;
17662;SDS011;8950;56.892;15.090;2022-12-15T10:58:31;3.95;;;3.45;;
17662;SDS011;8950;56.892;15.090;2022-12-15T11:01:03;3.88;;;3.58;;
17662;SDS011;8950;56.892;15.090;2022-12-15T11:03:33;3.85;;;3.40;;
17662;SDS011;8950;56.892;15.090;2022-12-15T11:06:00;3.80;;;3.22;;
17662;SDS011;8950;56.892;15.090;2022-12-15T11:08:27;3.63;;;3.33;;
17662;SDS011;8950;56.892;15.090;2022-12-15T11:10:55;3.45;;;3.15;;
17662;SDS011;8950;56.892;15.090;2022-12-15T11:13:40;3.35;;;2.80;;
17662;SDS011;8950;56.892;15.090;2022-12-15T11:16:09;3.60;;;3.30;;
17662;SDS011;8950;56.892;15.090;2022-12-15T11:18:36;3.47;;;3.17;;
17662;SDS011;8950;56.892;15.090;2022-12-15T11:21:04;3.25;;;2.70;;
17662;SDS011;8950;56.892;15.090;2022-12-15T11:23:38;3.45;;;2.60;;
17662;SDS011;8950;56.892;15.090;2022-12-15T11:26:14;2.53;;;2.33;;
17662;SDS011;8950;56.892;15.090;2022-12-15T11:28:44;2.60;;;2.40;;
17662;SDS011;8950;56.892;15.090;2022-12-15T11:31:15;2.80;;;2.50;;
17662;SDS011;8950;56.892;15.090;2022-12-15T11:33:42;2.65;;;2.45;;
17662;SDS011;8950;56.892;15.090;2022-12-15T11:36:11;2.40;;;2.20;;
17662;SDS011;8950;56.892;15.090;2022-12-15T11:38:41;3.15;;;2.22;;
17662;SDS011;8950;56.892;15.090;2022-12-15T11:41:10;3.40;;;2.50;;
17662;SDS011;8950;56.892;15.090;2022-12-15T11:43:44;2.60;;;2.40;;
17662;SDS011;8950;56.892;15.090;2022-12-15T11:46:20;3.25;;;2.47;;
17662;SDS011;8950;56.892;15.090;2022-12-15T11:48:54;2.30;;;2.15;;
17662;SDS011;8950;56.892;15.090;2022-12-15T11:51:23;3.17;;;2.88;;
17662;SDS011;8950;56.892;15.090;2022-12-15T11:53:58;3.50;;;3.10;;
17662;SDS011;8950;56.892;15.090;2022-12-15T11:56:28;3.53;;;3.22;;
17662;SDS011;8950;56.892;15.090;2022-12-15T11:59:03;2.80;;;2.60;;
17662;SDS011;8950;56.892;15.090;2022-12-15T12:01:39;2.78;;;2.58;;
17662;SDS011;8950;56.892;15.090;2022-12-15T12:04:13;2.47;;;2.28;;
17662;SDS011;8950;56.892;15.090;2022-12-15T12:06:44;2.40;;;2.20;;
17662;SDS011;8950;56.892;15.090;2022-12-15T12:12:09;2.40;;;2.22;;
17662;SDS011;8950;56.892;15.090;2022-12-15T12:14:42;3.00;;;2.45;;
17662;SDS011;8950;56.892;15.090;2022-12-15T12:17:13;2.17;;;2.08;;
17662;SDS011;8950;56.892;15.090;2022-12-15T12:19:41;2.40;;;2.20;;
17662;SDS011;8950;56.892;15.090;2022-12-15T12:22:10;2.30;;;2.10;;
17662;SDS011;8950;56.892;15.090;2022-12-15T12:24:40;3.20;;;2.53;;
17662;SDS011;8950;56.892;15.090;2022-12-15T12:27:09;2.75;;;2.40;;
17662;SDS011;8950;56.892;15.090;2022-12-15T12:29:38;2.50;;;2.30;;
17662;SDS011;8950;56.892;15.090;2022-12-15T12:32:10;2.10;;;1.90;;
17662;SDS011;8950;56.892;15.090;2022-12-15T12:34:45;2.80;;;2.20;;
17662;SDS011;8950;56.892;15.090;2022-12-15T12:37:30;2.22;;;2.05;;
17662;SDS011;8950;56.892;15.090;2022-12-15T12:39:59;2.33;;;2.10;;
17662;SDS011;8950;56.892;15.090;2022-12-15T12:42:28;2.10;;;1.98;;
17662;SDS011;8950;56.892;15.090;2022-12-15T12:44:58;2.15;;;2.00;;
17662;SDS011;8950;56.892;15.090;2022-12-15T12:47:28;2.00;;;1.90;;
17662;SDS011;8950;56.892;15.090;2022-12-15T12:49:56;2.05;;;1.95;;
17662;SDS011;8950;56.892;15.090;2022-12-15T12:52:24;2.00;;;1.90;;
17662;SDS011;8950;56.892;15.090;2022-12-15T12:54:55;2.45;;;1.85;;
17662;SDS011;8950;56.892;15.090;2022-12-15T12:57:28;2.15;;;2.05;;
17662;SDS011;8950;56.892;15.090;2022-12-15T12:59:55;2.10;;;2.00;;
17662;SDS011;8950;56.892;15.090;2022-12-15T13:02:42;2.20;;;2.00;;
17662;SDS011;8950;56.892;15.090;2022-12-15T13:05:24;2.30;;;2.10;;
17662;SDS011;8950;56.892;15.090;2022-12-15T13:07:52;2.05;;;1.95;;
17662;SDS011;8950;56.892;15.090;2022-12-15T13:10:19;2.00;;;1.90;;
17662;SDS011;8950;56.892;15.090;2022-12-15T13:12:47;2.00;;;1.90;;
17662;SDS011;8950;56.892;15.090;2022-12-15T13:15:17;2.13;;;1.90;;
17662;SDS011;8950;56.892;15.090;2022-12-15T13:17:50;2.40;;;2.20;;
17662;SDS011;8950;56.892;15.090;2022-12-15T13:20:20;2.97;;;2.30;;
17662;SDS011;8950;56.892;15.090;2022-12-15T13:22:47;2.22;;;2.03;;
17662;SDS011;8950;56.892;15.090;2022-12-15T13:25:32;2.42;;;2.22;;
17662;SDS011;8950;56.892;15.090;2022-12-15T13:28:00;2.00;;;1.90;;
17662;SDS011;8950;56.892;15.090;2022-12-15T13:30:26;2.00;;;1.90;;
17662;SDS011;8950;56.892;15.090;2022-12-15T13:33:11;1.83;;;1.73;;
17662;SDS011;8950;56.892;15.090;2022-12-15T13:35:38;2.58;;;2.00;;
17662;SDS011;8950;56.892;15.090;2022-12-15T13:38:07;2.10;;;1.70;;
17662;SDS011;8950;56.892;15.090;2022-12-15T13:40:50;2.15;;;1.98;;
17662;SDS011;8950;56.892;15.090;2022-12-15T13:43:35;2.03;;;1.83;;
17662;SDS011;8950;56.892;15.090;2022-12-15T13:46:08;2.13;;;1.95;;
17662;SDS011;8950;56.892;15.090;2022-12-15T13:48:38;1.70;;;1.60;;
17662;SDS011;8950;56.892;15.090;2022-12-15T13:51:23;2.42;;;2.17;;
17662;SDS011;8950;56.892;15.090;2022-12-15T13:53:52;2.00;;;1.90;;
17662;SDS011;8950;56.892;15.090;2022-12-15T13:56:22;1.92;;;1.73;;
17662;SDS011;8950;56.892;15.090;2022-12-15T13:58:51;2.00;;;1.90;;
17662;SDS011;8950;56.892;15.090;2022-12-15T14:01:20;1.90;;;1.80;;
17662;SDS011;8950;56.892;15.090;2022-12-15T14:06:43;2.30;;;2.10;;
17662;SDS011;8950;56.892;15.090;2022-12-15T14:09:11;2.28;;;1.90;;
17662;SDS011;8950;56.892;15.090;2022-12-15T14:11:38;2.35;;;2.15;;
17662;SDS011;8950;56.892;15.090;2022-12-15T14:14:08;2.17;;;2.08;;
17662;SDS011;8950;56.892;15.090;2022-12-15T14:16:37;2.28;;;2.15;;
17662;SDS011;8950;56.892;15.090;2022-12-15T14:19:10;2.00;;;1.90;;
17662;SDS011;8950;56.892;15.090;2022-12-15T14:21:37;2.25;;;2.05;;
17662;SDS011;8950;56.892;15.090;2022-12-15T14:24:14;2.10;;;1.90;;
17662;SDS011;8950;56.892;15.090;2022-12-15T14:26:41;2.38;;;2.17;;
17662;SDS011;8950;56.892;15.090;2022-12-15T14:29:07;1.75;;;1.65;;
17662;SDS011;8950;56.892;15.090;2022-12-15T14:31:34;2.28;;;2.08;;
17662;SDS011;8950;56.892;15.090;2022-12-15T14:34:04;2.22;;;2.03;;
17662;SDS011;8950;56.892;15.090;2022-12-15T14:36:31;2.00;;;1.90;;
17662;SDS011;8950;56.892;15.090;2022-12-15T14:38:58;2.40;;;2.20;;
17662;SDS011;8950;56.892;15.090;2022-12-15T14:41:27;2.05;;;1.95;;
17662;SDS011;8950;56.892;15.090;2022-12-15T14:43:55;2.20;;;2.00;;
17662;SDS011;8950;56.892;15.090;2022-12-15T14:46:23;2.30;;;2.10;;
17662;SDS011;8950;56.892;15.090;2022-12-15T14:48:52;2.30;;;2.10;;
17662;SDS011;8950;56.892;15.090;2022-12-15T14:51:19;2.17;;;1.98;;
17662;SDS011;8950;56.892;15.090;2022-12-15T14:53:47;2.33;;;2.13;;
17662;SDS011;8950;56.892;15.090;2022-12-15T14:56:20;2.15;;;1.95;;
17662;SDS011;8950;56.892;15.090;2022-12-15T14:58:53;2.22;;;2.03;;
17662;SDS011;8950;56.892;15.090;2022-12-15T15:01:22;2.20;;;2.00;;
17662;SDS011;8950;56.892;15.090;2022-12-15T15:03:59;2.05;;;1.95;;
17662;SDS011;8950;56.892;15.090;2022-12-15T15:06:30;2.28;;;2.17;;
17662;SDS011;8950;56.892;15.090;2022-12-15T15:09:02;2.13;;;2.03;;
17662;SDS011;8950;56.892;15.090;2022-12-15T15:11:29;1.90;;;1.80;;
17662;SDS011;8950;56.892;15.090;2022-12-15T15:14:02;4.05;;;3.75;;
17662;SDS011;8950;56.892;15.090;2022-12-15T15:16:29;4.00;;;3.70;;
17662;SDS011;8950;56.892;15.090;2022-12-15T15:18:56;2.80;;;2.60;;
17662;SDS011;8950;56.892;15.090;2022-12-15T15:21:26;2.30;;;2.10;;
17662;SDS011;8950;56.892;15.090;2022-12-15T15:23:57;2.20;;;2.10;;